Latest Weather Observations for Pearce

IDW60801

Issued at 10:03 am WST Monday 1 May 2017 (issued every 30 minutes, with the page automatically refreshed every 10 minutes)

About weather observations | Map of weather stations | Latest weather observations for WA | Other Formats
Station Details ID: 009053 Name: PEARCE RAAF Lat: -31.67 Lon: 116.02 Height: 40.0 m
Data from the previous 72 hours. | See also: Recent months at Pearce
Date/Time
WST
Temp
°C
App
Temp
°C
Dew
Point
°C
Rel
Hum
%
Delta-T
°C
Wind Press
QNH
hPa
Press
MSL
hPa
Rain since
9am
mm
Dir  Spd
km/h
Gust
km/h
Spd
kts
Gust
kts
01/09:30am 17.8 12.4 9.4 58 4.4 E 28 39 15 21 1025.3 1025.2 0.0
01/09:00am 17.1 11.3 9.5 61 4.0 E 30 41 16 22 1025.4 1025.3 0.0
01/08:30am 16.1 11.5 9.5 65 3.4 E 24 39 13 21 1025.6 1025.5 0.0
01/08:00am 14.8 12.2 9.4 70 2.8 ESE 13 24 7 13 1025.9 1025.8 0.0
01/07:30am 13.5 10.8 9.0 74 2.3 S 13 17 7 9 1025.6 1025.5 0.0
01/07:00am 13.0 10.6 8.7 75 2.1 SSE 11 17 6 9 1025.3 1025.2 0.0
01/06:30am 13.3 11.0 9.0 75 2.2 SSE 11 15 6 8 1024.9 1024.8 0.0
01/06:00am 13.6 11.3 8.9 73 2.4 S 11 17 6 9 1024.6 1024.5 0.0
01/05:30am 13.9 11.2 9.1 73 2.4 SSE 13 24 7 13 1024.6 1024.5 0.0
01/05:00am 13.8 11.1 9.0 73 2.4 SSE 13 24 7 13 1024.5 1024.4 0.0
01/04:30am 14.4 11.9 9.8 74 2.4 SE 13 28 7 15 1024.4 1024.3 0.0
01/04:00am 14.6 12.9 10.0 74 2.4 SE 9 20 5 11 1024.0 1023.9 0.0
01/03:30am 15.0 12.7 10.4 74 2.4 S 13 20 7 11 1024.0 1023.9 0.0
01/03:00am 15.6 13.5 11.0 74 2.4 SSE 13 19 7 10 1023.6 1023.5 0.0
01/02:30am 15.5 13.8 11.1 75 2.4 S 11 17 6 9 1023.6 1023.5 0.0
01/02:00am 15.6 14.4 11.6 77 2.2 SSW 9 15 5 8 1023.5 1023.4 0.0
01/01:30am 16.1 15.3 12.8 81 1.8 S 9 13 5 7 1023.4 1023.3 0.0
01/01:00am 16.3 16.3 15.2 93 0.6 ESE 9 15 5 8 1023.4 1023.3 0.0
01/12:30am 12.6 13.1 11.7 94 0.5 CALM 0 6 0 3 1023.4 1023.3 0.0
01/12:21am 12.8 13.4 11.9 94 0.5 CALM 0 6 0 3 1023.5 1023.4 0.0
01/12:00am 12.3 12.3 11.2 93 0.6 SSW 2 6 1 3 1023.5 1023.4 0.0
 
Date/Time
WST
Temp
°C
App
Temp
°C
Dew
Point
°C
Rel
Hum
%
Delta-T
°C
Wind Press
QNH
hPa
Press
MSL
hPa
Rain since
9am
mm
Dir  Spd
km/h
Gust
km/h
Spd
kts
Gust
kts
30/11:30pm 14.0 13.6 12.9 93 0.6 S 7 9 4 5 1023.3 1023.2 0.0
30/11:00pm 12.7 13.1 11.4 92 0.7 CALM 0 0 0 0 1023.2 1023.1 0.0
30/10:30pm 14.4 15.4 13.3 93 0.6 CALM 0 0 0 0 1023.2 1023.1 0.0
30/10:00pm 14.5 15.5 13.2 92 0.7 CALM 0 2 0 1 1023.1 1023.0 0.0
30/09:30pm 15.8 16.1 14.5 92 0.7 SSW 6 7 3 4 1022.9 1022.8 0.0
30/09:00pm 15.9 15.6 14.4 91 0.9 SSW 9 9 5 5 1022.8 1022.7 0.0
30/08:30pm 16.4 16.8 14.8 90 0.9 SSW 6 7 3 4 1022.7 1022.6 0.0
30/08:00pm 16.8 16.7 15.0 89 1.0 SSW 9 11 5 6 1022.5 1022.4 0.0
30/07:30pm 16.8 16.2 14.6 87 1.3 SSW 11 13 6 7 1022.4 1022.3 0.0
30/07:00pm 18.2 17.2 15.5 84 1.6 SSW 15 22 8 12 1022.2 1022.1 0.0
30/06:30pm 18.3 17.2 14.4 78 2.3 SSW 13 15 7 8 1021.8 1021.7 0.0
30/06:00pm 19.7 18.4 14.9 74 2.8 SSW 15 19 8 10 1021.3 1021.2 0.0
30/05:30pm 20.9 18.8 14.8 68 3.6 SSW 19 22 10 12 1020.9 1020.7 0.0
30/05:00pm 22.2 20.0 14.3 61 4.6 SW 19 24 10 13 1020.6 1020.4 0.0
30/04:30pm 23.4 21.7 14.7 58 5.2 SW 17 24 9 13 1020.4 1020.2 0.0
30/04:00pm 24.0 20.9 14.4 55 5.7 SSW 24 32 13 17 1020.3 1020.1 0.0
30/03:30pm 23.9 21.6 14.6 56 5.5 SSW 20 32 11 17 1020.4 1020.2 0.0
30/03:00pm 24.0 21.3 13.5 52 6.1 SSW 20 30 11 16 1020.4 1020.2 0.0
30/02:30pm 24.6 21.8 13.2 49 6.6 SSW 20 28 11 15 1020.4 1020.2 0.0
30/02:00pm 24.1 20.7 12.4 48 6.7 SSW 22 32 12 17 1020.4 1020.2 0.0
30/01:30pm 24.2 21.3 12.8 49 6.6 SSW 20 32 11 17 1020.4 1020.2 0.0
30/01:00pm 24.1 21.6 12.4 48 6.7 S 17 30 9 16 1020.7 1020.5 0.0
30/12:30pm 23.6 19.8 12.3 49 6.4 SSW 24 32 13 17 1021.1 1021.0 0.0
30/12:00pm 23.0 19.7 11.7 49 6.3 SSW 20 30 11 16 1021.5 1021.4 0.0
30/11:30am 23.0 19.6 12.6 52 5.9 SSW 22 30 12 16 1021.9 1021.8 0.0
30/11:00am 21.7 19.3 12.5 56 5.2 S 17 26 9 14 1022.2 1022.1 0.0
30/10:30am 21.3 19.1 13.2 60 4.6 SSE 17 20 9 11 1022.6 1022.5 0.0
30/10:00am 19.4 18.0 10.9 58 4.6 S 9 15 5 8 1022.8 1022.7 0.0
30/09:30am 17.2 15.3 6.7 50 5.2 S 6 9 3 5 1023.1 1023.0 0.0
30/09:00am 14.8 13.5 7.6 62 3.6 S 4 6 2 3 1023.1 1023.0 0.0
30/08:30am 11.2 10.6 7.3 77 1.9 CALM 0 7 0 4 1023.0 1022.9 0.0
30/08:00am 8.7 6.7 6.3 85 1.1 S 6 6 3 3 1022.5 1022.4 0.0
30/07:30am 7.0 4.7 5.0 87 0.9 S 6 7 3 4 1022.2 1022.1 0.0
30/07:00am 5.4 2.7 3.6 88 0.8 S 7 9 4 5 1022.0 1021.9 0.0
30/06:30am 6.0 4.7 4.0 87 0.9 CALM 0 0 0 0 1021.8 1021.7 0.0
30/06:00am 5.4 3.1 2.9 84 1.0 S 4 6 2 3 1021.8 1021.7 0.0
30/05:30am 8.2 6.3 6.5 89 0.8 S 6 9 3 5 1021.7 1021.6 0.0
30/05:00am 6.3 4.7 4.3 87 0.9 S 2 6 1 3 1021.5 1021.4 0.0
30/04:30am 6.4 5.0 3.4 81 1.3 CALM 0 0 0 0 1021.0 1020.9 0.0
30/04:00am 6.3 4.6 4.0 85 1.0 S 2 7 1 4 1021.1 1021.0 0.0
30/03:30am 5.7 2.9 2.9 82 1.2 S 7 9 4 5 1021.1 1021.0 0.0
30/03:00am 8.9 6.2 5.5 79 1.5 S 9 11 5 6 1021.2 1021.1 0.0
30/02:30am 6.9 5.6 4.0 82 1.2 CALM 0 0 0 0 1021.6 1021.5 0.0
30/02:00am 8.7 7.6 4.9 77 1.7 CALM 0 0 0 0 1021.5 1021.4 0.0
30/01:30am 9.6 7.9 6.1 79 1.6 S 4 6 2 3 1021.7 1021.6 0.0
30/01:00am 8.6 6.9 4.2 74 1.9 S 2 6 1 3 1021.6 1021.5 0.0
30/12:30am 10.5 8.3 5.3 70 2.4 S 6 7 3 4 1021.5 1021.4 0.0
30/12:00am 9.7 8.3 5.3 74 2.0 S 2 7 1 4 1021.8 1021.7 0.0
 
Date/Time
WST
Temp
°C
App
Temp
°C
Dew
Point
°C
Rel
Hum
%
Delta-T
°C
Wind Press
QNH
hPa
Press
MSL
hPa
Rain since
9am
mm
Dir  Spd
km/h
Gust
km/h
Spd
kts
Gust
kts
29/11:30pm 10.0 7.9 5.6 74 2.0 S 6 7 3 4 1021.7 1021.6 0.0
29/11:00pm 9.7 8.2 5.1 73 2.1 S 2 7 1 4 1022.0 1021.9 0.0
29/10:30pm 10.2 9.0 4.6 68 2.5 CALM 0 0 0 0 1022.2 1022.1 0.0
29/10:00pm 13.2 11.7 6.8 65 3.1 S 4 6 2 3 1022.1 1022.0 0.0
29/09:30pm 12.9 12.0 6.0 63 3.3 CALM 0 2 0 1 1022.2 1022.1 0.0
29/09:00pm 12.6 11.6 5.5 62 3.3 CALM 0 0 0 0 1022.2 1022.1 0.0
29/08:30pm 15.8 15.0 6.3 53 4.6 CALM 0 0 0 0 1022.0 1021.9 0.0
29/08:00pm 16.2 14.2 6.1 51 4.9 SSE 6 6 3 3 1021.9 1021.8 0.0
29/07:30pm 17.5 15.3 5.1 44 6.0 S 6 9 3 5 1021.9 1021.8 0.0
29/07:00pm 18.8 17.2 6.3 44 6.2 SSW 4 9 2 5 1021.6 1021.5 0.0
29/06:30pm 19.3 16.5 5.0 39 7.0 S 9 9 5 5 1021.3 1021.2 0.0
29/06:00pm 20.4 18.1 5.6 38 7.3 S 7 9 4 5 1021.0 1020.9 0.0
29/05:30pm 21.6 17.6 5.1 34 8.2 SSW 15 19 8 10 1020.9 1020.7 0.0
29/05:00pm 23.6 18.7 5.0 30 9.3 SSW 20 24 11 13 1020.7 1020.5 0.0
29/04:30pm 24.9 19.6 5.2 28 10.0 SW 22 32 12 17 1020.7 1020.5 0.0
29/04:00pm 27.4 25.2 3.2 21 12.0 NE 4 24 2 13 1020.4 1020.2 0.0
29/03:30pm 27.1 23.9 2.9 21 11.9 ESE 9 19 5 10 1020.3 1020.1 0.0
29/03:00pm 27.3 24.2 3.7 22 11.8 SW 9 15 5 8 1020.5 1020.3 0.0
29/02:30pm 26.8 23.3 3.3 22 11.7 SW 11 17 6 9 1020.6 1020.4 0.0
29/02:00pm 27.2 24.6 3.0 21 11.9 E 6 11 3 6 1020.8 1020.6 0.0
29/01:30pm 26.4 22.5 3.6 23 11.3 ESE 13 20 7 11 1021.1 1021.0 0.0
29/01:00pm 26.3 22.7 2.9 22 11.4 ENE 11 20 6 11 1021.5 1021.4 0.0
29/12:30pm 25.6 22.5 3.6 24 10.9 ENE 9 19 5 10 1022.2 1022.1 0.0
29/12:00pm 25.5 23.0 4.6 26 10.5 ESE 7 17 4 9 1022.9 1022.8 0.0
29/11:30am 24.8 22.0 5.1 28 10.0 E 9 13 5 7 1023.3 1023.2 0.0
29/11:00am 23.4 20.8 4.4 29 9.4 ENE 7 15 4 8 1023.8 1023.7 0.0
29/10:30am 22.8 19.9 4.8 31 8.9 ENE 9 13 5 7 1023.8 1023.7 0.0
29/10:00am 21.7 18.5 5.2 34 8.2 NE 11 17 6 9 1023.9 1023.8 0.0
29/09:30am 20.9 17.3 4.9 35 7.9 E 13 19 7 10 1023.9 1023.8 0.0
29/09:00am 19.3 16.2 5.4 40 6.8 E 11 20 6 11 1024.1 1024.0 0.0
29/08:30am 17.5 12.7 4.8 43 6.1 E 19 24 10 13 1024.3 1024.2 0.0
29/08:00am 16.4 12.8 4.8 46 5.5 E 13 19 7 10 1024.3 1024.2 0.0
29/07:30am 15.2 11.6 4.9 50 4.8 ENE 13 17 7 9 1023.9 1023.8 0.0
29/07:00am 11.1 9.6 4.8 65 2.8 ENE 2 7 1 4 1024.0 1023.9 0.0
29/06:30am 10.6 9.0 4.3 65 2.8 E 2 7 1 4 1023.9 1023.8 0.0
29/06:00am 7.5 4.9 3.0 73 1.9 E 6 7 3 4 1023.8 1023.7 0.0
29/05:30am 9.9 7.5 5.3 73 2.1 W 7 13 4 7 1023.6 1023.5 0.0
29/05:00am 11.5 9.3 5.4 66 2.8 WSW 6 7 3 4 1023.6 1023.5 0.0
29/04:30am 9.6 7.1 5.0 73 2.1 WSW 7 11 4 6 1023.7 1023.6 0.0
29/04:00am 8.2 5.4 5.1 81 1.4 WSW 9 11 5 6 1023.6 1023.5 0.0
29/03:30am 8.3 6.0 4.9 79 1.5 WSW 6 9 3 5 1023.1 1023.0 0.0
29/03:00am 8.1 5.5 3.2 71 2.1 SE 6 7 3 4 1023.5 1023.4 0.0
29/02:30am 10.5 9.4 4.9 68 2.5 CALM 0 0 0 0 1023.6 1023.5 0.0
29/02:00am 11.0 10.1 6.0 71 2.3 CALM 0 0 0 0 1023.7 1023.6 0.0
29/01:30am 10.1 8.1 6.3 77 1.8 SE 6 6 3 3 1023.7 1023.6 0.0
29/01:00am 11.0 10.3 6.9 76 1.9 CALM 0 0 0 0 1023.7 1023.6 0.0
29/12:30am 10.2 9.1 6.9 80 1.6 SE 2 6 1 3 1023.7 1023.6 0.0
29/12:00am 9.5 8.2 4.1 69 2.4 CALM 0 0 0 0 1023.7 1023.6 0.0
 
Date/Time
WST
Temp
°C
App
Temp
°C
Dew
Point
°C
Rel
Hum
%
Delta-T
°C
Wind Press
QNH
hPa
Press
MSL
hPa
Rain since
9am
mm
Dir  Spd
km/h
Gust
km/h
Spd
kts
Gust
kts
28/11:30pm 11.7 10.6 5.1 64 3.0 CALM 0 0 0 0 1024.1 1024.0 0.0
28/11:00pm 12.9 11.9 5.8 62 3.3 CALM 0 2 0 1 1024.3 1024.2 0.0
28/10:30pm 12.6 11.6 7.5 71 2.5 SE 2 6 1 3 1024.5 1024.4 0.0
28/10:00pm 11.6 9.8 5.3 65 2.9 SE 4 6 2 3 1024.7 1024.6 0.0
28/09:30pm 15.2 12.8 4.3 48 5.1 SE 6 7 3 4 1024.7 1024.6 0.0
28/09:00pm 14.7 13.8 6.0 56 4.2 CALM 0 0 0 0 1024.5 1024.4 0.0
28/08:30pm 15.3 12.8 3.8 46 5.3 SSE 6 9 3 5 1024.5 1024.4 0.0
28/08:00pm 17.9 15.6 5.5 44 6.0 SSE 7 9 4 5 1024.5 1024.4 0.0
28/07:30pm 18.4 16.4 6.3 45 6.0 S 6 7 3 4 1024.3 1024.2 0.0
28/07:00pm 19.4 18.1 9.3 52 5.3 SSE 6 9 3 5 1024.1 1024.0 0.0
28/06:30pm 20.1 17.3 8.4 47 6.1 SSW 13 15 7 8 1024.0 1023.9 0.0
28/06:00pm 21.5 19.0 4.6 33 8.2 SE 7 9 4 5 1023.6 1023.5 0.0
28/05:30pm 23.8 19.5 3.2 26 10.0 E 15 20 8 11 1023.2 1023.1 0.0
28/05:00pm 24.8 20.9 3.5 25 10.4 E 13 19 7 10 1022.9 1022.8 0.0
28/04:30pm 25.3 20.2 3.3 24 10.8 E 19 28 10 15 1023.0 1022.9 0.0
28/04:00pm 25.4 20.6 2.8 23 11.0 ESE 17 24 9 13 1023.0 1022.9 0.0
28/03:30pm 26.2 22.4 4.1 24 11.1 E 13 22 7 12 1022.9 1022.8 0.0
28/03:00pm 26.1 21.9 4.0 24 11.0 E 15 24 8 13 1022.8 1022.7 0.0
28/02:30pm 25.8 20.4 4.3 25 10.8 ESE 22 35 12 19 1022.7 1022.6 0.0
28/02:00pm 25.5 20.4 4.0 25 10.7 ESE 20 33 11 18 1022.8 1022.7 0.0
28/01:30pm 25.5 20.0 4.0 25 10.7 SE 22 32 12 17 1023.2 1023.1 0.0
28/01:00pm 25.3 20.9 5.0 27 10.2 ENE 17 28 9 15 1023.6 1023.5 0.0
28/12:30pm 25.5 20.5 4.6 26 10.5 SE 20 30 11 16 1024.1 1024.0 0.0
28/12:00pm 25.1 22.4 5.8 29 9.9 ESE 9 20 5 11 1024.7 1024.6 0.0
28/11:30am 24.6 21.1 5.4 29 9.7 ENE 13 19 7 10 1025.2 1025.1 0.0
28/11:00am 23.9 20.3 4.8 29 9.5 NE 13 20 7 11 1025.6 1025.5 0.0
28/10:30am 23.4 21.7 5.8 32 8.9 NNE 4 7 2 4 1025.9 1025.8 0.0

Other Formats:

Comma delimited format used in spreadsheet applications
http://www.bom.gov.au/fwo/IDW60801/IDW60801.94612.axf

JavaScript Object Notation format (JSON) in row-major order
http://www.bom.gov.au/fwo/IDW60801/IDW60801.94612.json